Time;durP1;ratioP1;P1;durP2;ratioP2;P2;SDS_P1;SDS_P2;PMS_P1;PMS_P2;Temp;Humidity;BMP_temperature;BMP_pressure;BME280_temperature;BME280_humidity;BME280_pressure;Samples;Min_cycle;Max_cycle;Signal;HPM_P1;HPM_P2
2023/03/25 00:00:20;;;;;;;3.22;0.80;;;;;;;5.61;100.00;92442.84;2574623;23;20009;-89
2023/03/25 00:01:24;;;;;;;4.07;0.90;;;;;;;5.77;100.00;92442.25;2575461;23;20012;-90
2023/03/25 00:02:34;;;;;;;6.03;0.70;;;;;;;5.71;100.00;92462.44;2563916;23;19984;-90
2023/03/25 00:03:45;;;;;;;3.28;0.90;;;;;;;5.64;100.00;92467.81;2563792;23;20462;-89
2023/03/25 00:04:53;;;;;;;4.30;0.85;;;;;;;5.76;100.00;92475.97;2564572;23;20013;-88
2023/03/25 00:05:56;;;;;;;3.20;0.77;;;;;;;5.74;100.00;92466.91;2575006;22;20471;-88
2023/03/25 00:06:57;;;;;;;3.78;1.00;;;;;;;5.53;100.00;92460.78;2571413;23;20062;-87
2023/03/25 00:07:58;;;;;;;4.13;0.85;;;;;;;5.48;100.00;92460.44;2570938;23;20000;-87
2023/03/25 00:09:01;;;;;;;3.65;0.65;;;;;;;5.46;100.00;92454.81;2558715;23;20558;-88
2023/03/25 00:10:03;;;;;;;3.40;0.60;;;;;;;5.40;100.00;92451.09;2571303;23;20035;-88
2023/03/25 00:11:05;;;;;;;6.50;0.65;;;;;;;5.36;100.00;92453.81;2559236;23;20033;-86
2023/03/25 00:12:08;;;;;;;5.10;0.73;;;;;;;5.21;100.00;92457.75;2559650;23;20013;-87
2023/03/25 00:13:12;;;;;;;4.60;0.95;;;;;;;5.16;100.00;92458.22;2560305;23;20395;-89
2023/03/25 00:14:15;;;;;;;2.95;0.80;;;;;;;5.11;100.00;92461.31;2561292;23;20012;-86
2023/03/25 00:15:18;;;;;;;1.17;0.73;;;;;;;5.18;100.00;92459.31;2560337;23;20008;-87
2023/03/25 00:16:20;;;;;;;2.05;0.90;;;;;;;5.14;100.00;92452.56;2560193;23;20458;-88
2023/03/25 00:17:25;;;;;;;3.55;1.08;;;;;;;5.07;100.00;92453.38;2559567;23;20009;-88
2023/03/25 00:18:38;;;;;;;5.07;1.25;;;;;;;4.97;100.00;92459.56;2560763;23;20013;-87
2023/03/25 00:19:40;;;;;;;5.35;0.88;;;;;;;5.13;100.00;92459.00;2564591;23;20001;-87
2023/03/25 00:20:44;;;;;;;4.00;0.82;;;;;;;5.01;100.00;92460.28;2571426;22;20047;-86
2023/03/25 00:21:49;;;;;;;4.55;0.80;;;;;;;4.94;100.00;92463.75;2583468;22;20000;-86
2023/03/25 00:22:51;;;;;;;3.35;0.90;;;;;;;4.96;100.00;92458.03;2559877;23;20005;-86
2023/03/25 00:23:52;;;;;;;2.75;0.90;;;;;;;4.95;100.00;92457.31;2572839;22;20632;-86
2023/03/25 00:24:54;;;;;;;4.68;0.98;;;;;;;5.20;100.00;92453.63;2572729;23;20004;-87
2023/03/25 00:25:59;;;;;;;4.82;0.90;;;;;;;5.08;100.00;92459.44;2558743;23;20005;-87
2023/03/25 00:27:00;;;;;;;2.47;0.60;;;;;;;4.95;100.00;92445.97;2560656;23;20064;-88
2023/03/25 00:28:02;;;;;;;3.67;0.80;;;;;;;5.21;100.00;92450.56;2572819;22;20000;-85
2023/03/25 00:29:03;;;;;;;2.30;0.90;;;;;;;5.34;100.00;92448.13;2587884;22;20004;-86
2023/03/25 00:30:05;;;;;;;2.35;0.73;;;;;;;5.20;100.00;92448.31;2584058;22;20353;-86
2023/03/25 00:31:11;;;;;;;4.53;1.27;;;;;;;5.22;100.00;92460.03;2584577;22;20008;-85
2023/03/25 00:32:14;;;;;;;2.83;1.02;;;;;;;5.14;100.00;92450.66;2571719;23;20464;-85
2023/03/25 00:33:17;;;;;;;3.05;0.98;;;;;;;5.12;100.00;92447.66;2558844;23;20012;-86
2023/03/25 00:34:19;;;;;;;3.85;0.85;;;;;;;4.91;100.00;92450.53;2559305;23;20005;-85
2023/03/25 00:35:22;;;;;;;3.50;1.08;;;;;;;4.98;100.00;92453.88;2571290;23;20001;-86
2023/03/25 00:36:24;;;;;;;4.90;0.90;;;;;;;4.76;100.00;92436.72;2572507;22;20056;-86
2023/03/25 00:37:29;;;;;;;5.68;1.02;;;;;;;4.69;100.00;92437.53;2597207;22;20003;-85
2023/03/25 00:38:33;;;;;;;3.25;0.80;;;;;;;4.68;100.00;92445.88;2572131;23;20096;-85
2023/03/25 00:40:33;;;;;;;3.03;0.98;;;;;;;4.58;100.00;92442.22;2572111;23;20009;-85
2023/03/25 00:41:35;;;;;;;2.95;0.85;;;;;;;4.65;100.00;92436.81;2586411;23;20035;-87
2023/03/25 00:42:43;;;;;;;2.28;0.80;;;;;;;4.49;100.00;92426.78;2573916;23;20014;-86
2023/03/25 00:43:44;;;;;;;2.65;0.80;;;;;;;4.43;100.00;92431.00;2564138;23;20016;-87
2023/03/25 00:44:49;;;;;;;4.72;0.95;;;;;;;4.37;100.00;92427.28;2573544;22;20082;-87
2023/03/25 00:45:54;;;;;;;4.80;1.10;;;;;;;4.36;100.00;92431.09;2574413;23;20004;-87
2023/03/25 00:46:55;;;;;;;8.73;1.20;;;;;;;4.44;100.00;92423.84;2587178;22;20054;-87
2023/03/25 00:48:33;;;;;;;6.15;1.20;;;;;;;4.45;100.00;92420.03;2586183;23;20055;-86
2023/03/25 00:49:34;;;;;;;4.05;0.90;;;;;;;4.37;100.00;92422.00;2575202;23;20004;-87
2023/03/25 00:50:35;;;;;;;4.53;0.88;;;;;;;4.49;100.00;92413.56;2579617;23;19981;-87
2023/03/25 00:51:36;;;;;;;8.25;1.20;;;;;;;4.62;100.00;92421.75;2559519;23;20009;-87
2023/03/25 00:52:37;;;;;;;5.55;0.82;;;;;;;4.68;100.00;92419.41;2572728;22;20028;-87
2023/03/25 00:53:38;;;;;;;3.75;1.00;;;;;;;4.61;100.00;92417.59;2572540;23;20008;-88
2023/03/25 00:54:39;;;;;;;2.40;0.80;;;;;;;4.64;100.00;92419.44;2572733;23;20005;-88
2023/03/25 00:55:40;;;;;;;5.32;0.85;;;;;;;4.69;100.00;92428.84;2561236;23;20448;-87
2023/03/25 00:56:42;;;;;;;4.22;0.82;;;;;;;4.62;100.00;92416.47;2564758;23;20432;-88
2023/03/25 00:57:43;;;;;;;6.38;1.10;;;;;;;4.67;100.00;92404.69;2573519;22;20027;-87
2023/03/25 00:59:12;;;;;;;7.90;1.40;;;;;;;4.63;100.00;92411.91;2574117;23;20004;-87
2023/03/25 01:00:31;;;;;;;4.80;0.93;;;;;;;4.59;100.00;92411.19;2580118;22;19988;-85
2023/03/25 01:01:44;;;;;;;4.75;1.25;;;;;;;4.56;100.00;92404.78;2589624;22;20000;-88
2023/03/25 01:02:52;;;;;;;3.45;1.08;;;;;;;4.57;100.00;92424.09;2588842;22;20460;-87
2023/03/25 01:03:58;;;;;;;8.75;1.00;;;;;;;4.59;100.00;92414.59;2573986;23;20011;-88
2023/03/25 01:05:00;;;;;;;3.35;1.05;;;;;;;4.47;100.00;92407.91;2562251;23;20104;-88
2023/03/25 01:06:02;;;;;;;3.10;0.70;;;;;;;4.50;100.00;92407.13;2560916;23;20447;-87
2023/03/25 01:07:09;;;;;;;3.55;1.10;;;;;;;4.59;100.00;92416.50;2561650;23;20044;-88
2023/03/25 01:08:13;;;;;;;6.68;1.00;;;;;;;4.57;100.00;92419.53;2563931;23;20103;-88
2023/03/25 01:09:15;;;;;;;6.10;0.98;;;;;;;4.65;100.00;92420.94;2573158;23;20009;-88
2023/03/25 01:10:17;;;;;;;2.90;0.80;;;;;;;4.55;100.00;92416.53;2573214;22;20015;-88
2023/03/25 01:11:21;;;;;;;4.25;1.00;;;;;;;4.51;100.00;92419.19;2573701;23;20739;-87
2023/03/25 01:12:23;;;;;;;3.63;0.98;;;;;;;4.72;100.00;92420.13;2574699;22;20005;-88
2023/03/25 01:13:25;;;;;;;5.55;0.82;;;;;;;4.76;100.00;92423.50;2574313;23;20004;-88
2023/03/25 01:14:28;;;;;;;4.50;0.80;;;;;;;4.72;100.00;92422.78;2561925;23;20058;-88
2023/03/25 01:15:29;;;;;;;4.60;1.00;;;;;;;4.99;100.00;92423.59;2561403;23;20009;-88
2023/03/25 01:16:30;;;;;;;6.82;1.30;;;;;;;5.02;100.00;92424.69;2573738;22;20013;-87
2023/03/25 01:17:31;;;;;;;7.70;1.30;;;;;;;4.96;100.00;92432.34;2573920;23;20017;-88
2023/03/25 01:18:36;;;;;;;3.97;0.90;;;;;;;4.84;100.00;92430.22;2561735;23;20028;-87
2023/03/25 01:19:38;;;;;;;5.78;1.20;;;;;;;4.95;100.00;92427.44;2575108;22;20005;-87
2023/03/25 01:20:39;;;;;;;6.53;1.08;;;;;;;5.00;100.00;92422.47;2573289;23;20017;-87
2023/03/25 01:21:41;;;;;;;6.25;0.82;;;;;;;5.14;100.00;92436.69;2571252;23;20020;-86
2023/03/25 01:22:56;;;;;;;5.63;1.15;;;;;;;5.12;100.00;92447.66;2570852;22;20589;-86
2023/03/25 01:23:57;;;;;;;4.93;0.95;;;;;;;4.99;100.00;92446.69;2583447;23;20448;-84
2023/03/25 01:24:58;;;;;;;5.60;1.15;;;;;;;4.87;100.00;92458.53;2570790;23;20077;-84
2023/03/25 01:26:00;;;;;;;13.75;1.73;;;;;;;4.82;100.00;92458.97;2583877;22;20409;-82
2023/03/25 01:27:01;;;;;;;3.70;0.70;;;;;;;4.76;100.00;92463.94;2571774;23;20437;-84
2023/03/25 01:28:04;;;;;;;1.65;0.40;;;;;;;4.61;100.00;92469.75;2558801;23;20005;-84
2023/03/25 01:29:05;;;;;;;2.35;0.40;;;;;;;4.50;100.00;92470.63;2559506;23;20028;-83
2023/03/25 01:30:07;;;;;;;4.40;0.80;;;;;;;4.42;100.00;92477.13;2570542;22;20059;-83
2023/03/25 01:31:13;;;;;;;1.10;0.40;;;;;;;4.23;100.00;92480.31;2570482;23;20008;-82
2023/03/25 01:32:15;;;;;;;3.80;0.60;;;;;;;3.87;100.00;92470.03;2583846;22;20388;-82
2023/03/25 01:33:18;;;;;;;1.23;0.40;;;;;;;3.73;100.00;92459.53;2582793;22;20007;-82
2023/03/25 01:34:20;;;;;;;1.38;0.20;;;;;;;3.49;100.00;92456.66;2583138;22;20015;-83
2023/03/25 01:35:22;;;;;;;1.35;0.30;;;;;;;3.36;100.00;92458.25;2582914;22;20019;-83
2023/03/25 01:36:28;;;;;;;0.40;0.30;;;;;;;3.38;100.00;92449.94;2583142;22;20059;-82
2023/03/25 01:37:32;;;;;;;0.77;0.20;;;;;;;3.23;100.00;92447.38;2571270;23;20001;-84
2023/03/25 01:38:37;;;;;;;1.13;0.35;;;;;;;3.24;100.00;92443.59;2570737;23;20004;-83
2023/03/25 01:39:38;;;;;;;1.85;0.20;;;;;;;3.15;100.00;92442.53;2571014;23;20366;-83
2023/03/25 01:40:39;;;;;;;1.95;0.38;;;;;;;3.08;100.00;92434.66;2558213;23;20085;-82
2023/03/25 01:41:42;;;;;;;0.25;0.25;;;;;;;3.07;100.00;92433.13;2570728;23;20434;-85
2023/03/25 01:42:43;;;;;;;0.68;0.30;;;;;;;3.08;100.00;92438.03;2558830;23;20008;-84
2023/03/25 01:44:20;;;;;;;0.85;0.20;;;;;;;3.08;100.00;92439.94;2558853;23;20032;-83
2023/03/25 01:45:29;;;;;;;1.13;0.30;;;;;;;3.06;100.00;92435.00;2528137;23;20006;-84
2023/03/25 01:46:31;;;;;;;0.20;0.20;;;;;;;3.06;100.00;92421.06;2524579;23;20010;-84
2023/03/25 01:47:32;;;;;;;0.68;0.20;;;;;;;3.06;100.00;92423.72;2533885;23;20421;-83
2023/03/25 01:48:38;;;;;;;0.60;0.30;;;;;;;3.05;100.00;92419.56;2557948;23;20012;-84
2023/03/25 01:49:45;;;;;;;0.55;0.30;;;;;;;3.18;100.00;92426.66;2572076;23;20023;-84
2023/03/25 01:51:02;;;;;;;1.95;0.40;;;;;;;3.17;100.00;92430.44;2573635;22;20008;-84
2023/03/25 01:52:13;;;;;;;1.70;0.32;;;;;;;3.13;100.00;92418.41;2586565;22;20514;-84
2023/03/25 01:53:15;;;;;;;1.27;0.40;;;;;;;3.19;100.00;92425.53;2572875;23;20091;-84
2023/03/25 01:54:52;;;;;;;1.27;0.40;;;;;;;3.20;100.00;92423.63;2571090;22;20012;-84
2023/03/25 01:55:53;;;;;;;0.38;0.30;;;;;;;3.30;100.00;92422.09;2591880;22;20086;-85
2023/03/25 01:56:57;;;;;;;0.35;0.30;;;;;;;3.29;100.00;92413.38;2584554;22;20043;-84
2023/03/25 01:58:09;;;;;;;4.25;0.55;;;;;;;3.27;100.00;92413.03;2584358;22;20358;-85
2023/03/25 01:59:14;;;;;;;5.78;1.05;;;;;;;3.37;100.00;92408.81;2571367;23;20070;-85
2023/03/25 02:00:17;;;;;;;2.42;0.60;;;;;;;3.38;100.00;92407.69;2572109;23;20000;-84
2023/03/25 02:01:21;;;;;;;3.42;0.70;;;;;;;3.37;100.00;92401.66;2573525;22;20009;-85
2023/03/25 02:02:35;;;;;;;2.50;0.80;;;;;;;3.53;100.00;92406.47;2571485;23;20020;-85
2023/03/25 02:03:36;;;;;;;2.70;0.60;;;;;;;3.84;100.00;92403.97;2563792;23;20077;-85
2023/03/25 02:04:58;;;;;;;4.35;0.93;;;;;;;3.79;100.00;92389.28;2558235;23;20055;-85
2023/03/25 02:06:02;;;;;;;3.50;0.98;;;;;;;3.76;100.00;92392.69;2567183;23;20431;-84
2023/03/25 02:07:06;;;;;;;8.13;1.05;;;;;;;3.91;100.00;92385.41;2559060;23;20007;-85
2023/03/25 02:08:11;;;;;;;6.80;0.90;;;;;;;3.96;100.00;92388.38;2560088;23;20323;-85
2023/03/25 02:09:20;;;;;;;6.13;1.17;;;;;;;3.93;100.00;92381.22;2559353;23;20047;-85
2023/03/25 02:10:21;;;;;;;5.50;1.10;;;;;;;3.99;100.00;92377.00;2561150;23;20487;-85
2023/03/25 02:11:27;;;;;;;5.38;1.30;;;;;;;3.94;100.00;92376.69;2558791;23;20001;-85
2023/03/25 02:12:31;;;;;;;4.68;0.93;;;;;;;4.28;100.00;92392.59;2584961;22;20000;-85
2023/03/25 02:13:37;;;;;;;7.72;1.30;;;;;;;4.14;100.00;92393.50;2583012;23;20019;-86
2023/03/25 02:14:40;;;;;;;12.27;1.52;;;;;;;4.08;100.00;92389.00;2571367;23;20062;-85
2023/03/25 02:16:18;;;;;;;5.00;1.13;;;;;;;4.31;100.00;92391.09;2570757;23;20011;-84
2023/03/25 02:17:44;;;;;;;6.55;1.15;;;;;;;4.21;100.00;92377.53;2586287;22;20399;-84
2023/03/25 02:30:27;;;;;;;;;;;;;;;4.03;100.00;92456.28;2591392;22;20092;-80
2023/03/25 02:31:40;;;;;;;1.65;0.70;;;;;;;3.97;100.00;92437.47;2559091;23;19920;-81
2023/03/25 02:32:55;;;;;;;1.48;0.50;;;;;;;3.89;100.00;92422.78;2537351;23;20075;-80
2023/03/25 02:34:09;;;;;;;1.35;0.60;;;;;;;3.87;100.00;92425.09;2539787;23;20001;-80
2023/03/25 02:35:24;;;;;;;3.10;0.63;;;;;;;3.69;100.00;92421.84;2549071;23;20084;-80
2023/03/25 02:36:56;;;;;;;3.00;0.68;;;;;;;3.73;100.00;92433.09;2548849;23;20016;-80
2023/03/25 02:38:39;;;;;;;3.50;0.65;;;;;;;3.65;100.00;92429.03;2558156;23;20009;-81
2023/03/25 02:39:47;;;;;;;2.47;0.70;;;;;;;3.62;100.00;92435.09;2548982;23;20005;-80
2023/03/25 02:41:04;;;;;;;2.28;0.52;;;;;;;3.77;100.00;92421.38;2558257;23;20015;-80
2023/03/25 02:42:16;;;;;;;1.50;0.63;;;;;;;3.64;100.00;92427.50;2537384;23;20009;-81
2023/03/25 02:43:33;;;;;;;1.58;0.32;;;;;;;3.67;100.00;92424.09;2538716;23;20048;-80
2023/03/25 02:45:03;;;;;;;1.70;0.50;;;;;;;3.71;100.00;92427.47;2537350;23;20009;-81
2023/03/25 02:46:12;;;;;;;1.35;0.45;;;;;;;3.71;100.00;92428.22;2493694;23;20086;-80
2023/03/25 02:47:17;;;;;;;3.20;0.70;;;;;;;3.57;100.00;92428.31;2524612;23;20005;-81
2023/03/25 02:48:26;;;;;;;1.88;0.60;;;;;;;3.46;100.00;92424.97;2546549;23;20306;-80
2023/03/25 02:49:32;;;;;;;1.90;0.43;;;;;;;3.51;100.00;92440.41;2548438;23;20013;-80
2023/03/25 02:50:39;;;;;;;1.42;0.57;;;;;;;3.64;100.00;92443.38;2535570;23;20080;-81
2023/03/25 02:51:47;;;;;;;2.05;0.70;;;;;;;3.63;100.00;92455.81;2535248;23;20009;-81
2023/03/25 02:52:57;;;;;;;2.08;0.50;;;;;;;3.54;100.00;92453.63;2537313;23;20021;-80
2023/03/25 02:54:05;;;;;;;2.63;0.63;;;;;;;3.65;100.00;92453.56;2535636;23;20009;-80
2023/03/25 02:55:10;;;;;;;1.77;0.55;;;;;;;3.73;100.00;92456.88;2547862;23;20005;-80
2023/03/25 02:56:15;;;;;;;0.95;0.52;;;;;;;3.77;100.00;92447.03;2547202;23;20091;-81
2023/03/25 02:57:20;;;;;;;2.05;0.82;;;;;;;3.80;100.00;92454.22;2533876;23;20002;-81
2023/03/25 02:58:23;;;;;;;3.35;0.50;;;;;;;3.72;100.00;92453.50;2523962;23;20030;-80
2023/03/25 02:59:28;;;;;;;2.03;0.70;;;;;;;3.74;100.00;92435.38;2534997;23;20025;-81
2023/03/25 03:00:31;;;;;;;1.83;0.60;;;;;;;3.67;100.00;92443.34;2535040;23;20041;-81
2023/03/25 03:01:34;;;;;;;2.13;0.43;;;;;;;3.84;100.00;92447.00;2534681;23;20634;-80
2023/03/25 03:02:36;;;;;;;1.60;0.70;;;;;;;3.79;100.00;92442.13;2547295;23;20009;-81
2023/03/25 03:03:38;;;;;;;1.00;0.50;;;;;;;3.79;100.00;92439.50;2570329;23;20008;-81
2023/03/25 03:04:47;;;;;;;2.58;0.63;;;;;;;3.68;100.00;92441.44;2557405;23;20013;-80
2023/03/25 03:05:52;;;;;;;1.30;0.57;;;;;;;3.54;100.00;92435.13;2524959;23;20093;-80
2023/03/25 03:06:55;;;;;;;1.92;0.60;;;;;;;3.56;100.00;92449.81;2546866;23;20079;-81
2023/03/25 03:08:18;;;;;;;1.42;0.50;;;;;;;3.67;100.00;92447.88;2546108;23;20024;-80
2023/03/25 03:09:45;;;;;;;1.92;0.65;;;;;;;3.81;100.00;92455.72;2489743;23;20423;-80
2023/03/25 03:10:58;;;;;;;1.50;0.60;;;;;;;3.70;100.00;92460.31;2544429;23;20100;-80
2023/03/25 03:12:34;;;;;;;3.70;0.77;;;;;;;3.77;100.00;92461.00;2548666;23;20001;-81
2023/03/25 03:14:16;;;;;;;6.47;0.70;;;;;;;3.87;100.00;92448.88;2541236;23;20095;-80
2023/03/25 03:15:44;;;;;;;2.58;0.73;;;;;;;3.76;100.00;92440.25;2549792;23;20530;-80
2023/03/25 03:17:02;;;;;;;1.10;0.50;;;;;;;3.89;100.00;92443.19;2534809;23;20013;-81
2023/03/25 03:18:25;;;;;;;1.30;0.68;;;;;;;3.82;100.00;92440.59;2553263;23;20009;-81
2023/03/25 03:19:38;;;;;;;0.40;0.40;;;;;;;3.76;100.00;92438.38;2546380;23;20100;-80
2023/03/25 03:21:12;;;;;;;2.80;0.60;;;;;;;3.81;100.00;92447.78;2535935;23;20441;-81
2023/03/25 03:22:35;;;;;;;2.83;0.60;;;;;;;3.78;100.00;92451.97;2553851;23;20084;-80
2023/03/25 03:23:48;;;;;;;1.95;0.60;;;;;;;3.64;100.00;92451.28;2545755;23;20075;-81
2023/03/25 03:25:09;;;;;;;2.20;0.60;;;;;;;3.65;100.00;92464.13;2538794;23;20006;-81
2023/03/25 03:26:37;;;;;;;2.13;0.50;;;;;;;4.01;100.00;92453.31;2550321;23;20015;-80
2023/03/25 03:27:52;;;;;;;2.67;0.60;;;;;;;3.88;100.00;92445.09;2563906;23;20001;-81
2023/03/25 03:29:06;;;;;;;2.20;0.57;;;;;;;3.72;100.00;92434.25;2564517;23;20026;-80
2023/03/25 03:30:25;;;;;;;2.03;0.75;;;;;;;3.67;100.00;92430.13;2546407;23;20499;-81
2023/03/25 03:31:35;;;;;;;1.27;0.50;;;;;;;3.55;100.00;92441.16;2522298;23;20021;-81
2023/03/25 03:32:59;;;;;;;2.50;1.08;;;;;;;3.69;100.00;92433.16;2510921;23;20013;-80
2023/03/25 03:34:09;;;;;;;3.42;0.77;;;;;;;3.60;100.00;92434.72;2552841;23;20415;-80
2023/03/25 03:35:23;;;;;;;0.77;0.40;;;;;;;3.57;100.00;92436.25;2541133;23;20005;-80
2023/03/25 03:36:30;;;;;;;5.00;0.60;;;;;;;3.49;100.00;92440.81;2536214;23;20010;-81
2023/03/25 03:37:38;;;;;;;2.05;0.70;;;;;;;3.43;100.00;92439.72;2543735;23;20088;-81
2023/03/25 03:38:45;;;;;;;3.92;0.75;;;;;;;3.61;100.00;92426.41;2543803;23;20425;-80
2023/03/25 03:39:48;;;;;;;1.58;0.68;;;;;;;3.58;100.00;92427.19;2520880;23;20014;-81
2023/03/25 03:40:54;;;;;;;3.03;0.70;;;;;;;3.54;100.00;92426.44;2520004;23;20034;-80
2023/03/25 03:42:03;;;;;;;1.83;0.60;;;;;;;3.54;100.00;92419.28;2545099;23;20033;-80
2023/03/25 03:43:30;;;;;;;1.67;0.80;;;;;;;3.39;100.00;92423.16;2541730;23;20033;-81
2023/03/25 03:44:36;;;;;;;2.90;0.68;;;;;;;3.54;100.00;92437.75;2517314;23;20464;-81
2023/03/25 03:45:44;;;;;;;1.77;0.50;;;;;;;3.53;100.00;92435.53;2519958;23;20105;-80
2023/03/25 03:47:10;;;;;;;1.20;0.38;;;;;;;3.60;100.00;92432.06;2534228;23;20016;-80
2023/03/25 03:48:22;;;;;;;1.85;0.47;;;;;;;3.36;100.00;92429.19;2542339;23;20432;-80
2023/03/25 03:49:33;;;;;;;1.90;0.60;;;;;;;3.38;100.00;92439.38;2557767;23;20360;-80
2023/03/25 03:50:45;;;;;;;1.65;0.50;;;;;;;3.30;100.00;92438.69;2541186;23;20093;-81
2023/03/25 03:51:55;;;;;;;2.05;0.90;;;;;;;3.30;100.00;92449.25;2523481;23;20034;-80
2023/03/25 03:53:11;;;;;;;2.03;0.40;;;;;;;3.44;100.00;92451.81;2533033;23;20032;-80
2023/03/25 03:54:24;;;;;;;3.35;0.63;;;;;;;3.50;100.00;92465.34;2533705;23;20005;-80
2023/03/25 03:55:32;;;;;;;1.58;0.60;;;;;;;3.36;100.00;92462.78;2530696;23;20417;-80
2023/03/25 03:56:47;;;;;;;0.93;0.60;;;;;;;3.27;100.00;92465.84;2520492;23;20105;-80
2023/03/25 03:57:57;;;;;;;2.42;0.50;;;;;;;3.35;100.00;92466.56;2513002;23;20682;-80
2023/03/25 03:59:01;;;;;;;5.18;0.63;;;;;;;3.27;100.00;92469.25;2535084;23;20002;-80
2023/03/25 04:00:06;;;;;;;4.10;0.80;;;;;;;3.38;100.00;92471.84;2531049;23;20006;-81
2023/03/25 04:01:33;;;;;;;0.70;0.60;;;;;;;3.31;100.00;92469.22;2532850;23;20056;-80
2023/03/25 04:02:46;;;;;;;1.35;0.68;;;;;;;3.22;100.00;92469.66;2538258;23;20041;-81
2023/03/25 04:03:57;;;;;;;1.48;0.50;;;;;;;3.17;100.00;92482.50;2535537;23;20413;-81
2023/03/25 04:04:59;;;;;;;0.82;0.50;;;;;;;3.16;100.00;92473.84;2541384;23;20060;-80
2023/03/25 04:06:08;;;;;;;3.08;0.82;;;;;;;3.19;100.00;92472.31;2531152;23;20016;-81
2023/03/25 04:07:21;;;;;;;1.75;0.52;;;;;;;3.22;100.00;92468.91;2543046;23;20585;-80
2023/03/25 04:08:31;;;;;;;1.27;0.63;;;;;;;3.12;100.00;92475.00;2533454;23;20006;-81
2023/03/25 04:09:42;;;;;;;4.40;0.60;;;;;;;3.03;100.00;92478.03;2556100;23;20001;-81
2023/03/25 04:10:58;;;;;;;1.27;0.65;;;;;;;3.08;100.00;92479.53;2531763;23;20010;-81
2023/03/25 04:12:04;;;;;;;2.78;0.60;;;;;;;3.11;100.00;92471.56;2537063;23;20008;-81
2023/03/25 04:13:12;;;;;;;1.48;0.57;;;;;;;3.05;100.00;92477.66;2531209;23;20010;-81
2023/03/25 04:14:14;;;;;;;2.50;0.60;;;;;;;3.01;100.00;92475.03;2521081;23;20016;-81
2023/03/25 04:15:16;;;;;;;4.38;0.88;;;;;;;3.09;100.00;92478.38;2543462;23;20009;-81
2023/03/25 04:16:17;;;;;;;0.70;0.45;;;;;;;3.08;100.00;92482.16;2543117;23;20006;-80
2023/03/25 04:17:18;;;;;;;4.03;1.02;;;;;;;3.07;100.00;92475.38;2555158;23;20015;-81
2023/03/25 04:18:22;;;;;;;2.35;0.70;;;;;;;3.02;100.00;92479.91;2519073;23;20044;-80
2023/03/25 04:19:24;;;;;;;2.85;0.70;;;;;;;2.97;100.00;92480.31;2519789;23;20006;-80
2023/03/25 04:20:32;;;;;;;1.98;0.80;;;;;;;2.99;100.00;92477.31;2508363;23;20003;-80
2023/03/25 04:21:33;;;;;;;2.60;0.65;;;;;;;2.91;100.00;92484.47;2520970;23;20493;-80
2023/03/25 04:22:37;;;;;;;6.55;1.00;;;;;;;2.88;100.00;92477.31;2519521;23;20058;-81
2023/03/25 04:23:40;;;;;;;2.03;0.60;;;;;;;2.98;100.00;92479.16;2519539;23;20003;-80
2023/03/25 04:24:42;;;;;;;3.78;0.80;;;;;;;2.91;100.00;92473.19;2531271;23;20045;-80
2023/03/25 04:25:52;;;;;;;1.08;0.40;;;;;;;3.01;100.00;92473.13;2542577;23;20009;-81
2023/03/25 04:27:02;;;;;;;;;;;;;;;3.10;100.00;92479.88;2521257;23;20010;-80
2023/03/25 04:28:03;;;;;;;3.92;0.82;;;;;;;3.20;100.00;92476.44;2534488;23;20433;-81
2023/03/25 04:29:04;;;;;;;2.65;0.70;;;;;;;3.13;100.00;92476.50;2543473;23;20348;-81
2023/03/25 04:30:07;;;;;;;4.25;0.80;;;;;;;3.03;100.00;92473.50;2544137;23;20570;-80
2023/03/25 04:31:17;;;;;;;5.47;0.75;;;;;;;3.17;100.00;92477.97;2542595;23;20017;-81
2023/03/25 04:32:18;;;;;;;2.80;0.70;;;;;;;3.03;100.00;92478.78;2522604;23;20010;-81
2023/03/25 04:33:19;;;;;;;2.08;0.80;;;;;;;3.05;100.00;92488.22;2555914;23;20165;-80
2023/03/25 04:34:21;;;;;;;4.70;0.82;;;;;;;3.17;100.00;92485.16;2530287;23;20381;-81
2023/03/25 04:35:24;;;;;;;2.40;0.75;;;;;;;3.23;100.00;92487.00;2531303;23;20369;-80
2023/03/25 04:36:36;;;;;;;2.70;0.63;;;;;;;3.05;100.00;92483.69;2542248;23;20012;-81
2023/03/25 04:37:37;;;;;;;2.85;0.50;;;;;;;2.99;100.00;92487.84;2521219;23;20014;-81
2023/03/25 04:38:39;;;;;;;2.78;0.70;;;;;;;3.07;100.00;92491.22;2543010;23;20005;-80
2023/03/25 04:39:41;;;;;;;4.22;0.93;;;;;;;3.06;100.00;92484.44;2530934;23;20017;-80
2023/03/25 04:40:45;;;;;;;3.22;0.73;;;;;;;2.94;100.00;92481.09;2543304;23;20052;-81
2023/03/25 04:42:12;;;;;;;3.53;0.70;;;;;;;2.95;100.00;92487.13;2530558;23;20006;-81
2023/03/25 04:43:21;;;;;;;5.22;0.80;;;;;;;2.89;100.00;92491.25;2516712;23;20010;-81
2023/03/25 04:44:24;;;;;;;1.85;0.75;;;;;;;2.85;100.00;92491.28;2510194;23;20033;-81
2023/03/25 04:45:27;;;;;;;3.80;0.82;;;;;;;2.86;100.00;92484.88;2508110;23;20010;-81
2023/03/25 04:46:29;;;;;;;6.18;1.13;;;;;;;2.83;100.00;92488.28;2543748;23;20061;-81
2023/03/25 04:47:36;;;;;;;4.95;0.93;;;;;;;2.85;100.00;92490.53;2543277;23;20018;-81
2023/03/25 04:48:44;;;;;;;3.53;0.73;;;;;;;2.93;100.00;92490.13;2521687;23;20118;-81
2023/03/25 04:49:50;;;;;;;2.38;0.65;;;;;;;2.89;100.00;92492.00;2555283;23;20004;-81
2023/03/25 04:50:57;;;;;;;5.43;0.95;;;;;;;2.88;100.00;92482.59;2531306;23;20370;-81
2023/03/25 04:52:01;;;;;;;4.25;0.70;;;;;;;3.18;100.00;92499.84;2519818;23;20002;-81
2023/03/25 04:53:02;;;;;;;4.47;0.60;;;;;;;3.21;100.00;92491.16;2519303;23;20006;-82
2023/03/25 04:54:08;;;;;;;3.45;0.70;;;;;;;3.18;100.00;92486.66;2530545;23;20413;-81
2023/03/25 04:55:18;;;;;;;2.30;0.68;;;;;;;3.06;100.00;92487.06;2543417;23;20029;-81
2023/03/25 04:56:28;;;;;;;3.45;0.90;;;;;;;3.26;100.00;92482.84;2544758;23;20421;-81
2023/03/25 04:57:36;;;;;;;3.38;0.65;;;;;;;3.07;100.00;92483.28;2553307;23;20005;-82
2023/03/25 04:58:41;;;;;;;4.43;0.73;;;;;;;3.06;100.00;92487.06;2543070;23;20005;-81
2023/03/25 04:59:52;;;;;;;3.72;0.90;;;;;;;3.18;100.00;92487.41;2532230;23;20422;-81
2023/03/25 05:01:04;;;;;;;3.38;0.75;;;;;;;3.12;100.00;92480.28;2555563;23;20361;-81
2023/03/25 05:02:12;;;;;;;4.53;0.80;;;;;;;3.04;100.00;92476.91;2542689;23;20033;-81
2023/03/25 05:03:24;;;;;;;3.95;0.73;;;;;;;3.18;100.00;92471.56;2554316;23;20456;-81
2023/03/25 05:04:25;;;;;;;1.35;0.60;;;;;;;3.03;100.00;92468.22;2530890;23;20025;-80
2023/03/25 05:05:26;;;;;;;5.75;0.70;;;;;;;2.96;100.00;92467.50;2518651;23;20010;-81
2023/03/25 05:06:34;;;;;;;2.13;0.90;;;;;;;2.92;100.00;92472.78;2518989;23;20061;-81
2023/03/25 05:07:44;;;;;;;5.70;0.80;;;;;;;2.89;100.00;92470.91;2534081;23;20434;-81
2023/03/25 05:08:45;;;;;;;3.65;0.70;;;;;;;2.91;100.00;92470.53;2530323;23;20005;-81
2023/03/25 05:09:46;;;;;;;3.38;0.90;;;;;;;2.86;100.00;92474.31;2518675;23;20005;-80
2023/03/25 05:10:53;;;;;;;3.67;0.85;;;;;;;2.96;100.00;92486.72;2518982;23;20010;-81
2023/03/25 05:11:55;;;;;;;5.25;0.77;;;;;;;3.01;100.00;92488.22;2519822;23;20010;-81
2023/03/25 05:13:00;;;;;;;3.63;0.82;;;;;;;2.97;100.00;92495.41;2507477;23;20211;-81
2023/03/25 05:14:10;;;;;;;2.60;0.65;;;;;;;3.06;100.00;92489.72;2518851;23;20007;-80
2023/03/25 05:15:17;;;;;;;7.45;1.13;;;;;;;3.08;100.00;92490.84;2546398;23;20454;-80
2023/03/25 05:16:20;;;;;;;3.83;0.75;;;;;;;3.06;100.00;92489.72;2541715;23;20575;-81
2023/03/25 05:17:29;;;;;;;2.85;0.77;;;;;;;3.07;100.00;92491.22;2531973;23;20006;-80
2023/03/25 05:18:34;;;;;;;3.70;0.65;;;;;;;3.21;100.00;92499.84;2543125;23;20012;-81
2023/03/25 05:19:44;;;;;;;3.08;0.73;;;;;;;3.17;100.00;92501.75;2531417;23;20014;-80
2023/03/25 05:20:45;;;;;;;2.97;0.70;;;;;;;3.23;100.00;92502.84;2544664;23;20002;-81
2023/03/25 05:21:51;;;;;;;2.75;0.77;;;;;;;3.27;100.00;92500.19;2530691;23;20452;-81
2023/03/25 05:22:59;;;;;;;4.13;0.85;;;;;;;3.30;100.00;92502.06;2532319;23;20096;-81
2023/03/25 05:24:03;;;;;;;2.10;0.80;;;;;;;3.19;100.00;92507.38;2530419;23;20010;-80
2023/03/25 05:25:14;;;;;;;4.97;1.00;;;;;;;3.16;100.00;92502.88;2531294;23;20013;-81
2023/03/25 05:26:24;;;;;;;3.88;1.23;;;;;;;3.21;100.00;92501.72;2530732;23;20481;-81
2023/03/25 05:27:32;;;;;;;3.33;0.57;;;;;;;3.16;100.00;92499.47;2534225;23;20506;-81
2023/03/25 05:28:38;;;;;;;4.38;0.73;;;;;;;3.19;100.00;92501.34;2530631;23;20009;-81
2023/03/25 05:29:43;;;;;;;4.57;0.95;;;;;;;3.13;100.00;92501.00;2521144;23;20013;-81
2023/03/25 05:30:50;;;;;;;2.40;0.50;;;;;;;3.06;100.00;92503.66;2543456;23;20507;-81
2023/03/25 05:31:54;;;;;;;3.45;0.85;;;;;;;3.09;100.00;92500.25;2543232;23;20412;-81